Time;durP1;ratioP1;P1;durP2;ratioP2;P2;SDS_P1;SDS_P2;PMS_P1;PMS_P2;Temp;Humidity;BMP_temperature;BMP_pressure;BME280_temperature;BME280_humidity;BME280_pressure;Samples;Min_cycle;Max_cycle;Signal;HPM_P1;HPM_P2
2023/01/16 00:01:24;;;;;;;1999.90;999.90;;;3.70;99.90;;;;;;5036863;28;20448;-67
2023/01/16 00:03:51;;;;;;;1999.90;999.90;;;3.60;99.90;;;;;;5007400;28;20453;-67
2023/01/16 00:06:17;;;;;;;1999.90;999.90;;;3.60;99.90;;;;;;5033707;28;21279;-68
2023/01/16 00:08:46;;;;;;;1999.90;999.90;;;3.60;99.90;;;;;;5031349;28;20445;-67
2023/01/16 00:11:14;;;;;;;1999.90;999.90;;;3.70;99.90;;;;;;5029071;28;20874;-66
2023/01/16 00:13:41;;;;;;;1999.90;999.90;;;3.80;99.90;;;;;;5029092;28;20449;-66
2023/01/16 00:16:08;;;;;;;1999.90;999.90;;;4.00;99.90;;;;;;5047544;28;20542;-67
2023/01/16 00:18:35;;;;;;;1999.90;999.90;;;4.00;99.90;;;;;;5048570;28;20484;-67
2023/01/16 00:21:03;;;;;;;1999.90;999.90;;;4.10;99.90;;;;;;5049499;28;20558;-67
2023/01/16 00:23:30;;;;;;;1999.90;999.90;;;4.20;99.90;;;;;;5049123;28;20459;-65
2023/01/16 00:25:56;;;;;;;1999.90;999.90;;;4.20;99.90;;;;;;5049741;28;20550;-67
2023/01/16 00:28:25;;;;;;;1999.90;999.90;;;4.20;99.90;;;;;;5049318;28;20448;-67
2023/01/16 00:30:51;;;;;;;1999.90;999.90;;;4.20;99.90;;;;;;5039592;28;20479;-66
2023/01/16 00:33:19;;;;;;;1999.90;999.90;;;4.30;99.90;;;;;;5029520;28;20959;-66
2023/01/16 00:35:47;;;;;;;1999.90;999.90;;;4.30;99.90;;;;;;5029543;28;20457;-67
2023/01/16 00:38:13;;;;;;;1999.90;999.90;;;4.40;99.90;;;;;;5029575;28;20476;-67
2023/01/16 00:40:41;;;;;;;1999.90;999.90;;;4.40;99.90;;;;;;5029239;28;20823;-67
2023/01/16 00:43:08;;;;;;;1999.90;999.90;;;4.50;99.90;;;;;;5029313;28;20814;-67
2023/01/16 00:45:36;;;;;;;1999.90;999.90;;;4.50;99.90;;;;;;5029201;28;20472;-68
2023/01/16 00:48:03;;;;;;;1999.90;999.90;;;4.60;99.90;;;;;;5029423;28;20461;-67
2023/01/16 00:50:30;;;;;;;1999.90;999.90;;;4.60;99.90;;;;;;5028832;28;20472;-67
2023/01/16 00:52:57;;;;;;;1999.90;999.90;;;4.60;99.90;;;;;;5029144;28;20532;-67
2023/01/16 00:55:23;;;;;;;1999.90;999.90;;;4.60;99.90;;;;;;5029234;28;20445;-67
2023/01/16 00:57:50;;;;;;;1999.90;999.90;;;4.60;99.90;;;;;;5029212;28;20480;-66
2023/01/16 01:00:19;;;;;;;1999.90;999.90;;;4.50;99.90;;;;;;5028455;28;20467;-67
2023/01/16 01:02:47;;;;;;;1999.90;999.90;;;4.40;99.90;;;;;;5030214;28;20457;-66
2023/01/16 01:05:14;;;;;;;1999.90;999.90;;;4.20;99.90;;;;;;5028626;28;21020;-66
2023/01/16 01:07:41;;;;;;;1999.90;999.90;;;4.20;99.90;;;;;;5029217;28;20449;-67
2023/01/16 01:10:09;;;;;;;1999.90;999.90;;;4.10;99.90;;;;;;5028283;28;20484;-67
2023/01/16 01:12:35;;;;;;;1999.90;999.90;;;4.10;99.90;;;;;;5028981;28;20448;-68
2023/01/16 01:15:03;;;;;;;1999.90;999.90;;;4.00;99.90;;;;;;5028805;28;20444;-66
2023/01/16 01:17:30;;;;;;;1999.90;999.90;;;3.90;99.90;;;;;;5028469;28;20873;-66
2023/01/16 01:19:58;;;;;;;1999.90;999.90;;;3.80;99.90;;;;;;5043976;28;20551;-66
2023/01/16 01:22:26;;;;;;;1999.90;999.90;;;3.80;99.90;;;;;;5048210;28;20452;-67
2023/01/16 01:24:52;;;;;;;1999.90;999.90;;;3.70;99.90;;;;;;5049330;28;20554;-67
2023/01/16 01:27:20;;;;;;;1999.90;999.90;;;3.70;99.90;;;;;;5052759;28;20436;-67
2023/01/16 01:29:46;;;;;;;1999.90;999.90;;;3.60;99.90;;;;;;5052113;28;20842;-69
2023/01/16 01:32:13;;;;;;;1999.90;999.90;;;3.60;99.90;;;;;;5052512;28;20452;-65
2023/01/16 01:34:40;;;;;;;1999.90;999.90;;;3.50;99.90;;;;;;5050358;28;20455;-66
2023/01/16 01:37:08;;;;;;;1999.90;999.90;;;3.40;99.90;;;;;;5032484;28;20959;-66
2023/01/16 01:39:35;;;;;;;1999.90;999.90;;;3.50;99.90;;;;;;5032115;28;20498;-66
2023/01/16 01:44:53;;;;;;;1999.90;999.90;;;3.40;99.90;;;;;;5032325;28;20432;-67
2023/01/16 01:47:24;;;;;;;1999.90;999.90;;;3.40;99.90;;;;;;5031965;28;20535;-67
2023/01/16 01:49:52;;;;;;;1999.90;999.90;;;3.30;99.90;;;;;;5032046;28;20469;-66
2023/01/16 01:52:22;;;;;;;1999.90;999.90;;;3.30;99.90;;;;;;5046664;28;20451;-66
2023/01/16 01:54:54;;;;;;;1999.90;999.90;;;3.30;99.90;;;;;;5051570;28;20487;-66
2023/01/16 01:57:24;;;;;;;1999.90;999.90;;;3.30;99.90;;;;;;5052229;28;20510;-67
2023/01/16 01:59:58;;;;;;;1999.90;999.90;;;3.30;99.90;;;;;;5051558;28;20467;-66
2023/01/16 02:02:29;;;;;;;1999.90;999.90;;;3.30;99.90;;;;;;5032529;28;20459;-68
2023/01/16 02:04:57;;;;;;;1999.90;999.90;;;3.30;99.90;;;;;;5031783;28;20445;-68
2023/01/16 02:07:28;;;;;;;1999.90;999.90;;;3.20;99.90;;;;;;5031771;28;20445;-67
2023/01/16 02:10:02;;;;;;;1999.90;999.90;;;3.20;99.90;;;;;;5031320;28;20491;-67
2023/01/16 02:12:29;;;;;;;1999.90;999.90;;;3.10;99.90;;;;;;5032954;28;20444;-67
2023/01/16 02:14:58;;;;;;;1999.90;999.90;;;3.00;99.90;;;;;;5040279;28;20463;-67
2023/01/16 02:20:20;;;;;;;1999.90;999.90;;;2.90;99.90;;;;;;5051069;28;20447;-67
2023/01/16 02:23:09;;;;;;;1999.90;999.90;;;2.80;99.90;;;;;;5051712;28;20440;-67
2023/01/16 02:26:12;;;;;;;1999.90;999.90;;;2.80;99.90;;;;;;5052156;28;20454;-68
2023/01/16 02:29:08;;;;;;;1999.90;999.90;;;2.70;99.90;;;;;;5051089;28;20454;-67
2023/01/16 02:31:45;;;;;;;1999.90;999.90;;;2.70;99.90;;;;;;5044807;28;20466;-68
2023/01/16 02:34:25;;;;;;;1999.90;999.90;;;2.70;99.90;;;;;;5051350;28;20444;-67
2023/01/16 02:37:05;;;;;;;1999.90;999.90;;;2.70;99.90;;;;;;5050280;28;20448;-67
2023/01/16 02:39:38;;;;;;;1999.90;999.90;;;2.70;99.90;;;;;;5049639;28;20590;-68
2023/01/16 02:42:15;;;;;;;1999.90;999.90;;;2.80;99.90;;;;;;5051343;28;20444;-69
2023/01/16 02:44:50;;;;;;;1999.90;999.90;;;2.80;99.90;;;;;;5051047;28;20447;-67
2023/01/16 02:47:24;;;;;;;1999.90;999.90;;;2.80;99.90;;;;;;5049529;28;20473;-67
2023/01/16 02:50:01;;;;;;;1999.90;999.90;;;2.80;99.90;;;;;;5050918;28;20463;-68
2023/01/16 02:52:34;;;;;;;1999.90;999.90;;;2.80;99.90;;;;;;5050997;28;20459;-68
2023/01/16 02:55:04;;;;;;;1999.90;999.90;;;2.90;99.90;;;;;;5051173;28;20458;-67
2023/01/16 02:57:36;;;;;;;1999.90;999.90;;;3.00;99.90;;;;;;5050717;28;20443;-67
2023/01/16 03:00:05;;;;;;;1999.90;999.90;;;3.00;99.90;;;;;;5050922;28;20851;-65
2023/01/16 03:02:33;;;;;;;1999.90;999.90;;;3.10;99.90;;;;;;5050775;28;20934;-67
2023/01/16 03:05:00;;;;;;;1999.90;999.90;;;3.10;99.90;;;;;;5032060;28;20460;-68
2023/01/16 03:07:52;;;;;;;1999.90;999.90;;;3.20;99.90;;;;;;5030980;28;20440;-66
2023/01/16 03:10:34;;;;;;;1999.90;999.90;;;3.20;99.90;;;;;;5030580;28;20487;-66
2023/01/16 03:13:13;;;;;;;1999.90;999.90;;;3.20;99.90;;;;;;5031344;28;20453;-67
2023/01/16 03:15:50;;;;;;;1999.90;999.90;;;3.10;99.90;;;;;;5030978;28;20459;-66
2023/01/16 03:18:29;;;;;;;1999.90;999.90;;;3.10;99.90;;;;;;5030640;28;20480;-66
2023/01/16 03:21:03;;;;;;;1999.90;999.90;;;3.10;99.90;;;;;;5049623;28;20820;-66
2023/01/16 03:23:40;;;;;;;1999.90;999.90;;;3.10;99.90;;;;;;5050808;28;20825;-66
2023/01/16 03:26:15;;;;;;;1999.90;999.90;;;3.10;99.90;;;;;;5050103;28;20448;-66
2023/01/16 03:28:51;;;;;;;1999.90;999.90;;;3.00;99.90;;;;;;5050185;28;20539;-67
2023/01/16 03:31:26;;;;;;;1999.90;999.90;;;3.00;99.90;;;;;;5050430;28;20444;-67
2023/01/16 03:34:03;;;;;;;1999.90;999.90;;;3.10;99.90;;;;;;5050421;28;20448;-67
2023/01/16 03:36:35;;;;;;;1999.90;999.90;;;3.10;99.90;;;;;;5036307;28;20990;-67
2023/01/16 03:39:05;;;;;;;1999.90;999.90;;;3.00;99.90;;;;;;5029829;28;20514;-68
2023/01/16 03:41:36;;;;;;;1999.90;999.90;;;3.00;99.90;;;;;;5030487;28;20441;-67
2023/01/16 03:44:06;;;;;;;1999.90;999.90;;;2.90;99.90;;;;;;5029900;28;20445;-65
2023/01/16 03:46:39;;;;;;;1999.90;999.90;;;2.90;99.90;;;;;;5030216;28;20453;-66
2023/01/16 03:49:12;;;;;;;1999.90;999.90;;;2.90;99.90;;;;;;5029083;28;20995;-66
2023/01/16 03:51:45;;;;;;;1999.90;999.90;;;2.80;99.90;;;;;;5031076;28;20445;-65
2023/01/16 03:54:23;;;;;;;1999.90;999.90;;;2.80;99.90;;;;;;5029913;28;20959;-67
2023/01/16 03:56:56;;;;;;;1999.90;999.90;;;2.80;99.90;;;;;;5030265;28;20821;-67
2023/01/16 03:59:23;;;;;;;1999.90;999.90;;;2.80;99.90;;;;;;5029650;28;20843;-66
2023/01/16 04:01:55;;;;;;;1999.90;999.90;;;2.80;99.90;;;;;;5043907;28;20456;-67
2023/01/16 04:04:28;;;;;;;1999.90;999.90;;;2.80;99.90;;;;;;5030597;28;21079;-68
2023/01/16 04:07:00;;;;;;;1999.90;999.90;;;2.90;99.90;;;;;;5029444;28;20448;-68
2023/01/16 04:09:36;;;;;;;1999.90;999.90;;;2.90;99.90;;;;;;5029275;28;20829;-67
2023/01/16 04:12:05;;;;;;;1999.90;999.90;;;2.90;99.90;;;;;;5029515;28;20471;-66
2023/01/16 04:14:35;;;;;;;1999.90;999.90;;;2.90;99.90;;;;;;5034532;28;20966;-66
2023/01/16 04:17:03;;;;;;;1999.90;999.90;;;2.90;99.90;;;;;;5049114;28;20946;-67
2023/01/16 04:19:33;;;;;;;1999.90;999.90;;;2.80;99.90;;;;;;5049100;28;20484;-67
2023/01/16 04:22:05;;;;;;;1999.90;999.90;;;2.80;99.90;;;;;;5049432;28;20992;-67
2023/01/16 04:24:32;;;;;;;1999.90;999.90;;;2.80;99.90;;;;;;5049142;28;20444;-68
2023/01/16 04:26:59;;;;;;;1999.90;999.90;;;2.70;99.90;;;;;;5049364;28;20818;-66
2023/01/16 04:29:25;;;;;;;1999.90;999.90;;;2.70;99.90;;;;;;5048829;28;20464;-65
2023/01/16 04:31:52;;;;;;;1999.90;999.90;;;2.60;99.90;;;;;;5047782;28;20479;-66
2023/01/16 04:34:19;;;;;;;1999.90;999.90;;;2.60;99.90;;;;;;5049169;28;20446;-66
2023/01/16 04:36:47;;;;;;;1999.90;999.90;;;2.50;99.90;;;;;;5049195;28;20446;-66
2023/01/16 04:39:14;;;;;;;1999.90;999.90;;;2.40;99.90;;;;;;5048656;28;20490;-66
2023/01/16 04:41:41;;;;;;;1999.90;999.90;;;2.40;99.90;;;;;;5049066;28;20454;-66
2023/01/16 04:44:10;;;;;;;1999.90;999.90;;;2.30;99.90;;;;;;5049383;28;20454;-67
2023/01/16 04:46:37;;;;;;;1999.90;999.90;;;2.30;99.90;;;;;;5047677;28;20447;-65
2023/01/16 04:49:05;;;;;;;1999.90;999.90;;;2.30;99.90;;;;;;5009287;28;20476;-67
2023/01/16 04:51:32;;;;;;;1999.90;999.90;;;2.30;99.90;;;;;;5009335;28;20445;-66
2023/01/16 04:54:01;;;;;;;1999.90;999.90;;;2.30;99.90;;;;;;5009185;28;20836;-67
2023/01/16 04:56:28;;;;;;;1999.90;999.90;;;2.20;99.90;;;;;;5009557;28;20450;-66
2023/01/16 04:58:55;;;;;;;1999.90;999.90;;;2.10;99.90;;;;;;5008464;28;20489;-65
2023/01/16 05:01:23;;;;;;;1999.90;999.90;;;2.10;99.90;;;;;;5008824;28;20442;-66
2023/01/16 05:03:50;;;;;;;1999.90;999.90;;;2.00;99.90;;;;;;5030824;28;21285;-65
2023/01/16 05:06:18;;;;;;;1999.90;999.90;;;2.00;99.90;;;;;;5048876;28;20452;-66
2023/01/16 05:08:44;;;;;;;1999.90;999.90;;;2.00;99.90;;;;;;5047928;28;20440;-66
2023/01/16 05:11:12;;;;;;;1999.90;999.90;;;2.00;99.90;;;;;;5048936;28;20436;-65
2023/01/16 05:13:39;;;;;;;1999.90;999.90;;;2.00;99.90;;;;;;5048653;28;20509;-68
2023/01/16 05:16:07;;;;;;;1999.90;999.90;;;2.00;99.90;;;;;;5048268;28;20454;-66
2023/01/16 05:18:33;;;;;;;1999.90;999.90;;;2.00;99.90;;;;;;5046937;28;20483;-67
2023/01/16 05:21:01;;;;;;;1999.90;999.90;;;2.00;99.90;;;;;;5028750;28;21049;-66
2023/01/16 05:23:28;;;;;;;1999.90;999.90;;;2.00;99.90;;;;;;5028560;28;20990;-68
2023/01/16 05:25:55;;;;;;;1999.90;999.90;;;2.10;99.90;;;;;;5028771;28;20448;-65
2023/01/16 05:28:23;;;;;;;1999.90;999.90;;;2.10;99.90;;;;;;5028540;28;20613;-67
2023/01/16 05:30:50;;;;;;;1999.90;999.90;;;2.20;99.90;;;;;;5028691;28;20465;-67
2023/01/16 05:33:17;;;;;;;1999.90;999.90;;;2.10;99.90;;;;;;5041595;28;20444;-66
2023/01/16 05:35:45;;;;;;;1999.90;999.90;;;2.10;99.90;;;;;;5036755;28;20451;-67
2023/01/16 05:38:12;;;;;;;1999.90;999.90;;;2.20;99.90;;;;;;5027965;28;20445;-68
2023/01/16 05:40:39;;;;;;;1999.90;999.90;;;2.20;99.90;;;;;;5042901;28;20475;-66
2023/01/16 05:43:06;;;;;;;1999.90;999.90;;;2.10;99.90;;;;;;5048606;28;21124;-68
2023/01/16 05:45:34;;;;;;;1999.90;999.90;;;2.10;99.90;;;;;;5048474;28;20452;-66
2023/01/16 05:48:01;;;;;;;1999.90;999.90;;;2.20;99.90;;;;;;5048584;28;20542;-66
2023/01/16 05:50:28;;;;;;;1999.90;999.90;;;2.20;99.90;;;;;;5047901;28;20470;-66
2023/01/16 05:52:55;;;;;;;1999.90;999.90;;;2.20;99.90;;;;;;5031424;28;20452;-67
2023/01/16 05:55:22;;;;;;;1999.90;999.90;;;2.20;99.90;;;;;;5028644;28;20445;-66
2023/01/16 05:57:49;;;;;;;1999.90;999.90;;;2.20;99.90;;;;;;5029084;28;20453;-67
2023/01/16 06:00:17;;;;;;;1999.90;999.90;;;2.20;99.90;;;;;;5029344;28;20492;-67
2023/01/16 06:02:46;;;;;;;1999.90;999.90;;;2.30;99.90;;;;;;5048522;28;20539;-64
2023/01/16 06:05:13;;;;;;;1999.90;999.90;;;2.30;99.90;;;;;;5048531;28;20444;-66
2023/01/16 06:07:41;;;;;;;1999.90;999.90;;;2.50;99.90;;;;;;5028316;28;20443;-67
2023/01/16 06:10:09;;;;;;;1999.90;999.90;;;2.50;99.90;;;;;;5027680;28;20484;-67
2023/01/16 06:12:36;;;;;;;1999.90;999.90;;;2.60;99.90;;;;;;5031014;28;20449;-67
2023/01/16 06:15:03;;;;;;;1999.90;999.90;;;2.60;99.90;;;;;;5039181;28;20447;-65
2023/01/16 06:17:30;;;;;;;1999.90;999.90;;;2.60;99.90;;;;;;5024025;28;20456;-66
2023/01/16 06:19:59;;;;;;;1999.90;999.90;;;2.60;99.90;;;;;;5029726;28;20863;-66
2023/01/16 06:22:26;;;;;;;1999.90;999.90;;;2.60;99.90;;;;;;5031066;28;20540;-68
2023/01/16 06:24:53;;;;;;;1999.90;999.90;;;2.60;99.90;;;;;;5017645;28;20589;-67
2023/01/16 06:27:19;;;;;;;1999.90;999.90;;;2.60;99.90;;;;;;5023774;28;20445;-66
2023/01/16 06:29:46;;;;;;;1999.90;999.90;;;2.50;99.90;;;;;;5029640;28;20599;-68
2023/01/16 06:32:15;;;;;;;1999.90;999.90;;;2.50;99.90;;;;;;5030702;28;20461;-67
2023/01/16 06:34:42;;;;;;;1999.90;999.90;;;2.60;99.90;;;;;;5030883;28;20560;-66
2023/01/16 06:37:11;;;;;;;1999.90;999.90;;;2.50;99.90;;;;;;5030627;28;20448;-63
2023/01/16 06:39:38;;;;;;;1999.90;999.90;;;2.50;99.90;;;;;;5030184;28;20480;-66
2023/01/16 06:42:05;;;;;;;1999.90;999.90;;;2.50;99.90;;;;;;5030032;28;20445;-66
2023/01/16 06:44:31;;;;;;;1999.90;999.90;;;2.60;99.90;;;;;;5030517;28;20460;-66
2023/01/16 06:46:59;;;;;;;1999.90;999.90;;;2.60;99.90;;;;;;5030192;28;20448;-67
2023/01/16 06:49:25;;;;;;;1999.90;999.90;;;2.70;99.90;;;;;;5030156;28;20543;-67
2023/01/16 06:51:52;;;;;;;1999.90;999.90;;;2.80;99.90;;;;;;5029950;28;20449;-67
2023/01/16 06:54:20;;;;;;;1999.90;999.90;;;2.80;99.90;;;;;;5030117;28;20444;-67
2023/01/16 06:56:47;;;;;;;1999.90;999.90;;;2.90;99.90;;;;;;5030481;28;20814;-66
2023/01/16 06:59:14;;;;;;;1999.90;999.90;;;2.90;99.90;;;;;;5029065;28;20485;-68
2023/01/16 07:01:41;;;;;;;1999.90;999.90;;;3.00;99.90;;;;;;5031105;28;20925;-67
2023/01/16 07:04:09;;;;;;;1999.90;999.90;;;3.10;99.90;;;;;;5010127;28;20477;-67
2023/01/16 07:06:37;;;;;;;1999.90;999.90;;;3.20;99.90;;;;;;5010110;28;20454;-66
2023/01/16 07:09:04;;;;;;;1999.90;999.90;;;3.30;99.90;;;;;;5009944;28;20488;-68
2023/01/16 07:11:32;;;;;;;1999.90;999.90;;;3.40;99.90;;;;;;5011706;28;20453;-66
2023/01/16 07:24:55;;;;;;;1999.90;999.90;;;3.60;99.90;;;;;;5029550;28;21313;-66
2023/01/16 07:27:24;;;;;;;1999.90;999.90;;;3.70;99.90;;;;;;5029858;28;20969;-68
2023/01/16 07:29:51;;;;;;;1999.90;999.90;;;3.70;99.90;;;;;;5029017;28;20465;-67
2023/01/16 07:32:18;;;;;;;1999.90;999.90;;;3.80;99.90;;;;;;5029390;28;20453;-66
2023/01/16 07:34:45;;;;;;;1999.90;999.90;;;3.90;99.90;;;;;;5030015;28;20463;-67
2023/01/16 07:37:11;;;;;;;1999.90;999.90;;;3.90;99.90;;;;;;5049586;28;20444;-68
2023/01/16 07:39:38;;;;;;;1999.90;999.90;;;3.90;99.90;;;;;;5049015;28;20859;-66
2023/01/16 07:42:06;;;;;;;1999.90;999.90;;;3.90;99.90;;;;;;5049080;28;20447;-66
2023/01/16 07:44:35;;;;;;;1999.90;999.90;;;3.90;99.90;;;;;;5049255;28;20554;-67
2023/01/16 07:47:01;;;;;;;1999.90;999.90;;;3.90;99.90;;;;;;5048798;28;20547;-69
2023/01/16 07:49:28;;;;;;;1999.90;999.90;;;4.00;99.90;;;;;;5048700;28;20917;-66
2023/01/16 07:51:55;;;;;;;1999.90;999.90;;;4.00;99.90;;;;;;5047355;28;20483;-67
2023/01/16 07:54:23;;;;;;;1999.90;999.90;;;4.10;99.90;;;;;;5049322;28;20450;-67
2023/01/16 07:56:50;;;;;;;1999.90;999.90;;;4.10;99.90;;;;;;5049097;28;20988;-67
2023/01/16 07:59:17;;;;;;;1999.90;999.90;;;4.10;99.90;;;;;;5048203;28;20530;-67
2023/01/16 08:01:46;;;;;;;1999.90;999.90;;;4.20;99.90;;;;;;5034819;28;20468;-67
2023/01/16 08:04:13;;;;;;;1999.90;999.90;;;4.20;99.90;;;;;;5028988;28;20463;-67
2023/01/16 08:06:44;;;;;;;1999.90;999.90;;;4.20;99.90;;;;;;5029010;28;21278;-66
2023/01/16 08:09:11;;;;;;;1999.90;999.90;;;4.20;99.90;;;;;;5028400;28;20491;-66
2023/01/16 08:11:38;;;;;;;1999.90;999.90;;;4.30;99.90;;;;;;5028585;28;20449;-66
2023/01/16 08:14:06;;;;;;;1999.90;999.90;;;4.30;99.90;;;;;;5029569;28;20872;-65
2023/01/16 08:16:33;;;;;;;1999.90;999.90;;;4.40;99.90;;;;;;5048521;28;21210;-66
2023/01/16 08:19:01;;;;;;;1999.90;999.90;;;4.50;99.90;;;;;;5048437;28;20468;-66
2023/01/16 08:21:28;;;;;;;1999.90;999.90;;;4.50;99.90;;;;;;5048492;28;20444;-66
2023/01/16 08:23:55;;;;;;;1999.90;999.90;;;4.60;99.90;;;;;;5048345;28;21067;-66
2023/01/16 08:26:22;;;;;;;1999.90;999.90;;;4.60;99.90;;;;;;5048437;28;20472;-66
2023/01/16 08:28:49;;;;;;;1999.90;999.90;;;4.70;99.90;;;;;;5047960;28;20446;-68
2023/01/16 08:31:18;;;;;;;1999.90;999.90;;;4.80;99.90;;;;;;5039844;28;20451;-66
2023/01/16 08:33:46;;;;;;;1999.90;999.90;;;4.80;99.90;;;;;;5028191;28;20888;-66
2023/01/16 08:36:16;;;;;;;1999.90;999.90;;;4.90;99.90;;;;;;5028518;28;20448;-67
2023/01/16 08:38:43;;;;;;;1999.90;999.90;;;5.10;99.90;;;;;;5028314;28;20448;-66
2023/01/16 08:51:21;;;;;;;1999.90;999.90;;;5.10;99.90;;;;;;5028345;28;20487;-67
2023/01/16 08:52:12;;;;;;;1999.90;999.90;;;5.40;99.90;;;;;;5028376;28;20448;-67
2023/01/16 08:54:39;;;;;;;1999.90;999.90;;;5.50;99.90;;;;;;5028260;28;20464;-67
2023/01/16 08:57:06;;;;;;;1999.90;999.90;;;5.50;99.90;;;;;;5028404;28;20451;-66
2023/01/16 08:59:33;;;;;;;1999.90;999.90;;;5.50;99.90;;;;;;5027983;28;20499;-66
2023/01/16 09:02:01;;;;;;;1999.90;999.90;;;5.50;99.90;;;;;;5027407;28;20456;-68
2023/01/16 09:04:28;;;;;;;1999.90;999.90;;;5.60;99.90;;;;;;5029148;28;20453;-67
2023/01/16 09:06:55;;;;;;;1999.90;999.90;;;5.60;99.90;;;;;;5028218;28;20454;-67
2023/01/16 09:09:24;;;;;;;1999.90;999.90;;;5.60;99.90;;;;;;5027813;28;20483;-67
2023/01/16 09:14:39;;;;;;;1999.90;999.90;;;5.80;99.90;;;;;;5028732;28;20535;-67
2023/01/16 09:17:07;;;;;;;1999.90;999.90;;;5.80;99.90;;;;;;5028121;28;20482;-67
2023/01/16 09:19:34;;;;;;;1999.90;999.90;;;5.80;99.90;;;;;;5027651;28;20469;-67
2023/01/16 09:22:01;;;;;;;1999.90;999.90;;;5.80;99.90;;;;;;5027963;28;20457;-66
2023/01/16 09:24:30;;;;;;;1999.90;999.90;;;5.90;99.90;;;;;;5027586;28;20456;-68
2023/01/16 09:26:56;;;;;;;1999.90;999.90;;;5.90;99.90;;;;;;5029558;28;20471;-67
2023/01/16 09:29:23;;;;;;;1999.90;999.90;;;6.00;99.90;;;;;;5047207;28;20475;-67
2023/01/16 09:31:50;;;;;;;1999.90;999.90;;;6.00;99.90;;;;;;5047735;28;20452;-67
2023/01/16 09:34:17;;;;;;;1999.90;999.90;;;6.00;99.90;;;;;;5047577;28;20830;-67
2023/01/16 09:36:43;;;;;;;1999.90;999.90;;;5.90;99.90;;;;;;5047532;28;20448;-66
2023/01/16 09:39:10;;;;;;;1999.90;999.90;;;5.90;99.90;;;;;;5047212;28;20474;-67
2023/01/16 09:44:34;;;;;;;1999.90;999.90;;;5.90;99.90;;;;;;5045899;28;20455;-66
2023/01/16 09:47:02;;;;;;;1999.90;999.90;;;5.90;99.90;;;;;;5049809;28;20455;-67
2023/01/16 09:49:32;;;;;;;1999.90;999.90;;;5.90;99.90;;;;;;5050935;28;20471;-67
2023/01/16 10:00:29;;;;;;;1999.90;999.90;;;6.40;99.90;;;;;;5036867;28;21125;-67
2023/01/16 10:02:56;;;;;;;1999.90;999.90;;;6.50;99.90;;;;;;5050518;28;20456;-67
2023/01/16 10:05:27;;;;;;;1999.90;999.90;;;6.60;99.90;;;;;;5050972;28;20452;-67
2023/01/16 10:08:03;;;;;;;1999.90;999.90;;;6.60;99.90;;;;;;5051177;28;20451;-67
2023/01/16 10:10:41;;;;;;;1999.90;999.90;;;6.60;99.90;;;;;;5050351;28;20478;-67
2023/01/16 10:13:32;;;;;;;1999.90;999.90;;;6.60;99.90;;;;;;5051118;28;20448;-67
2023/01/16 10:16:12;;;;;;;1999.90;999.90;;;6.60;99.90;;;;;;5033388;28;20531;-66
2023/01/16 10:18:50;;;;;;;1999.90;999.90;;;6.70;99.90;;;;;;5030815;28;20456;-67
2023/01/16 10:21:33;;;;;;;1999.90;999.90;;;6.70;99.90;;;;;;5030477;28;20952;-66
2023/01/16 10:24:06;;;;;;;1999.90;999.90;;;6.70;99.90;;;;;;5031068;28;20455;-67
2023/01/16 10:26:46;;;;;;;1999.90;999.90;;;6.80;99.90;;;;;;5030593;28;21202;-66
2023/01/16 10:29:24;;;;;;;1999.90;999.90;;;6.80;99.90;;;;;;5030501;28;20468;-67
2023/01/16 10:31:58;;;;;;;1999.90;999.90;;;6.80;99.90;;;;;;5031521;28;20539;-67
2023/01/16 10:34:29;;;;;;;1999.90;999.90;;;6.80;99.90;;;;;;5030979;28;20448;-66
2023/01/16 10:36:59;;;;;;;1999.90;999.90;;;6.80;99.90;;;;;;5030813;28;20986;-66
2023/01/16 10:39:30;;;;;;;1999.90;999.90;;;6.80;99.90;;;;;;5030380;28;20479;-66
2023/01/16 10:50:26;;;;;;;1999.90;999.90;;;7.00;99.90;;;;;;5049543;28;20986;-67
2023/01/16 10:52:53;;;;;;;1999.90;999.90;;;7.00;99.90;;;;;;5050400;28;20444;-66
2023/01/16 10:55:20;;;;;;;1999.90;999.90;;;7.10;99.90;;;;;;5049962;28;21061;-67
2023/01/16 10:57:52;;;;;;;1999.90;999.90;;;7.20;99.90;;;;;;5049179;28;20554;-67
2023/01/16 11:00:28;;;;;;;1999.90;999.90;;;7.20;99.90;;;;;;5045017;28;20484;-66
2023/01/16 11:02:58;;;;;;;1999.90;999.90;;;7.20;99.90;;;;;;5029985;28;20518;-66
2023/01/16 11:05:28;;;;;;;1999.90;999.90;;;7.20;99.90;;;;;;5029862;28;20445;-67
2023/01/16 11:07:55;;;;;;;1999.90;999.90;;;7.10;99.90;;;;;;5030203;28;20449;-67
2023/01/16 11:10:24;;;;;;;1999.90;999.90;;;7.10;99.90;;;;;;5029405;28;20473;-67
2023/01/16 11:18:30;;;;;;;1999.90;999.90;;;6.90;99.90;;;;;;5049429;28;20447;-65
2023/01/16 11:21:00;;;;;;;1999.90;999.90;;;6.90;99.90;;;;;;5049724;28;20932;-65
2023/01/16 11:23:34;;;;;;;1999.90;999.90;;;6.80;99.90;;;;;;5049604;28;20829;-65
2023/01/16 11:26:01;;;;;;;1999.90;999.90;;;6.80;99.90;;;;;;5049765;28;20485;-66
2023/01/16 11:28:31;;;;;;;1999.90;999.90;;;6.80;99.90;;;;;;5049081;28;20452;-65
2023/01/16 11:31:03;;;;;;;1999.90;999.90;;;6.80;99.90;;;;;;5038340;28;20453;-66
2023/01/16 11:33:36;;;;;;;1999.90;999.90;;;6.90;99.90;;;;;;5030122;28;20841;-66
2023/01/16 11:36:05;;;;;;;1999.90;999.90;;;6.90;99.90;;;;;;5029705;28;20484;-66
2023/01/16 11:38:36;;;;;;;1999.90;999.90;;;6.90;99.90;;;;;;5029367;28;20548;-67
2023/01/16 11:41:06;;;;;;;1999.90;999.90;;;7.00;99.90;;;;;;5029410;28;20485;-66
2023/01/16 11:46:33;;;;;;;1999.90;999.90;;;7.00;99.90;;;;;;5030418;28;20444;-65
2023/01/16 11:49:02;;;;;;;1999.90;999.90;;;7.10;99.90;;;;;;5029014;28;20469;-68
2023/01/16 11:51:31;;;;;;;1999.90;999.90;;;7.10;99.90;;;;;;5029046;28;21086;-66
2023/01/16 11:54:00;;;;;;;1999.90;999.90;;;7.20;99.90;;;;;;5029517;28;20441;-66
2023/01/16 11:57:04;;;;;;;1999.90;999.90;;;7.40;99.90;;;;;;5029094;28;20452;-66
2023/01/16 11:59:46;;;;;;;1999.90;999.90;;;7.40;99.90;;;;;;4986858;28;20465;-68
2023/01/16 12:02:35;;;;;;;1999.90;999.90;;;7.40;99.90;;;;;;5042672;28;20480;-66
2023/01/16 12:08:10;;;;;;;1999.90;999.90;;;7.60;99.90;;;;;;5048859;28;20424;-66
2023/01/16 12:10:45;;;;;;;1999.90;999.90;;;7.70;99.90;;;;;;5048240;28;20478;-66
2023/01/16 12:16:16;;;;;;;1999.90;999.90;;;7.80;99.90;;;;;;5031416;28;20519;-66
2023/01/16 12:18:59;;;;;;;1999.90;999.90;;;7.80;99.90;;;;;;5028805;28;20458;-66
2023/01/16 12:21:33;;;;;;;1999.90;999.90;;;7.90;99.90;;;;;;5028600;28;20512;-68
2023/01/16 12:24:15;;;;;;;1999.90;999.90;;;8.00;99.90;;;;;;5028858;28;21247;-66
2023/01/16 12:26:51;;;;;;;1999.90;999.90;;;8.00;99.90;;;;;;5028553;28;20511;-67
2023/01/16 12:29:31;;;;;;;1999.90;999.90;;;8.10;99.90;;;;;;5028320;28;20469;-68
2023/01/16 12:32:15;;;;;;;1999.90;999.90;;;8.20;99.90;;;;;;5008825;28;20542;-67
2023/01/16 12:35:06;;;;;;;1999.90;999.90;;;8.20;99.90;;;;;;5008892;28;20441;-68
2023/01/16 12:37:48;;;;;;;1999.90;999.90;;;8.20;99.90;;;;;;5008740;28;20442;-65
2023/01/16 12:40:29;;;;;;;1999.90;999.90;;;8.20;99.90;;;;;;5008070;28;20462;-66
2023/01/16 12:43:18;;;;;;;1999.90;999.90;;;8.30;99.90;;;;;;5008389;28;20457;-66
2023/01/16 12:45:50;;;;;;;1999.90;999.90;;;8.40;99.90;;;;;;5008776;28;20449;-67
2023/01/16 12:48:43;;;;;;;1999.90;999.90;;;8.40;99.90;;;;;;5026046;28;20452;-66
2023/01/16 12:51:29;;;;;;;1999.90;999.90;;;8.60;99.90;;;;;;5028001;28;20440;-68
2023/01/16 12:54:22;;;;;;;1999.90;999.90;;;8.80;99.90;;;;;;5028120;28;20448;-66
2023/01/16 12:57:02;;;;;;;1999.90;999.90;;;8.90;99.90;;;;;;5027942;28;20445;-67
2023/01/16 12:59:35;;;;;;;1999.90;999.90;;;9.10;99.90;;;;;;5029133;28;21070;-67
2023/01/16 13:02:17;;;;;;;1999.90;999.90;;;9.20;99.90;;;;;;5027949;28;20488;-67
2023/01/16 13:04:49;;;;;;;1999.90;999.90;;;9.20;99.90;;;;;;5028119;28;20479;-67
2023/01/16 13:07:18;;;;;;;1999.90;999.90;;;9.10;99.90;;;;;;5027723;28;20455;-67
2023/01/16 13:09:49;;;;;;;1999.90;999.90;;;9.00;99.90;;;;;;5027390;28;20480;-67
2023/01/16 13:15:09;;;;;;;1999.90;999.90;;;8.90;99.90;;;;;;5028107;28;20428;-67
2023/01/16 13:17:44;;;;;;;1999.90;999.90;;;8.80;99.90;;;;;;5028624;28;20981;-67
2023/01/16 13:20:19;;;;;;;1999.90;999.90;;;9.00;99.90;;;;;;5027503;28;20472;-67
2023/01/16 13:22:58;;;;;;;1999.90;999.90;;;9.10;99.90;;;;;;5031481;28;20506;-67
2023/01/16 13:25:31;;;;;;;1999.90;999.90;;;9.20;99.90;;;;;;5032218;28;20444;-66
2023/01/16 13:28:02;;;;;;;1999.90;999.90;;;9.20;99.90;;;;;;5031752;28;20479;-67
2023/01/16 13:30:29;;;;;;;1999.90;999.90;;;9.20;99.90;;;;;;5031291;28;20482;-67